createdAt,value
2022-08-04T00:00:20.572Z,20.10
2022-08-04T00:03:05.898Z,20.00
2022-08-04T00:05:35.443Z,20.00
2022-08-04T00:08:06.602Z,20.00
2022-08-04T00:10:35.016Z,20.00
2022-08-04T00:13:03.407Z,20.00
2022-08-04T00:15:30.166Z,19.90
2022-08-04T00:18:03.272Z,19.80
2022-08-04T00:20:31.355Z,19.80
2022-08-04T00:22:58.443Z,19.80
2022-08-04T00:25:25.675Z,19.70
2022-08-04T00:27:52.495Z,19.60
2022-08-04T00:30:19.237Z,19.60
2022-08-04T00:32:45.995Z,19.50
2022-08-04T00:35:16.092Z,19.50
2022-08-04T00:37:46.288Z,19.40
2022-08-04T00:40:41.345Z,19.40
2022-08-04T00:43:33.262Z,19.30
2022-08-04T00:46:18.241Z,19.30
2022-08-04T00:49:01.321Z,19.30
2022-08-04T00:51:48.227Z,19.30
2022-08-04T00:54:56.949Z,19.30
2022-08-04T00:57:48.668Z,19.30
2022-08-04T01:00:15.860Z,19.40
2022-08-04T01:02:54.769Z,19.40
2022-08-04T01:05:45.981Z,19.40
2022-08-04T01:08:50.689Z,19.30
2022-08-04T01:11:57.152Z,19.30
2022-08-04T01:14:47.835Z,19.30
2022-08-04T01:17:35.932Z,19.20
2022-08-04T01:20:13.332Z,19.10
2022-08-04T01:22:45.948Z,19.00
2022-08-04T01:25:31.880Z,19.00
2022-08-04T01:28:06.507Z,18.90
2022-08-04T01:30:34.484Z,18.90
2022-08-04T01:33:08.498Z,18.90
2022-08-04T01:35:47.022Z,19.00
2022-08-04T01:38:30.842Z,19.00
2022-08-04T01:40:59.473Z,19.00
2022-08-04T01:43:28.344Z,19.00
2022-08-04T01:45:59.669Z,18.90
2022-08-04T01:48:26.974Z,18.80
2022-08-04T01:50:54.401Z,18.80
2022-08-04T01:53:21.496Z,18.80
2022-08-04T01:55:55.064Z,18.80
2022-08-04T01:58:22.529Z,18.90
2022-08-04T02:01:02.290Z,18.90
2022-08-04T02:04:19.482Z,18.90
2022-08-04T02:06:43.332Z,18.80
2022-08-04T02:09:24.801Z,18.80
2022-08-04T02:12:16.301Z,18.80
2022-08-04T02:14:57.165Z,18.70
2022-08-04T02:17:36.817Z,18.70
2022-08-04T02:20:16.077Z,18.60
2022-08-04T02:23:10.269Z,18.60
2022-08-04T02:25:46.173Z,18.50
2022-08-04T02:28:18.551Z,18.50
2022-08-04T02:30:57.241Z,18.50
2022-08-04T02:33:27.413Z,18.40
2022-08-04T02:36:02.535Z,18.50
2022-08-04T02:39:01.286Z,18.40
2022-08-04T02:41:29.148Z,18.40
2022-08-04T02:44:06.546Z,18.40
2022-08-04T02:46:35.913Z,18.40
2022-08-04T02:49:04.360Z,18.40
2022-08-04T02:51:34.637Z,18.40
2022-08-04T02:54:02.680Z,18.40
2022-08-04T02:56:30.554Z,18.40
2022-08-04T02:59:05.347Z,18.40
2022-08-04T03:01:32.307Z,18.30
2022-08-04T03:04:24.689Z,18.30
2022-08-04T03:07:16.729Z,18.20
2022-08-04T03:10:01.610Z,18.20
2022-08-04T03:12:38.810Z,18.10
2022-08-04T03:15:30.452Z,18.10
2022-08-04T03:18:18.801Z,18.10
2022-08-04T03:21:10.346Z,18.10
2022-08-04T03:24:08.775Z,18.10
2022-08-04T03:26:41.537Z,18.10
2022-08-04T03:29:35.168Z,18.00
2022-08-04T03:32:22.257Z,18.00
2022-08-04T03:35:10.284Z,18.00
2022-08-04T03:37:43.421Z,18.00
2022-08-04T03:40:47.575Z,17.90
2022-08-04T03:43:58.279Z,18.00
2022-08-04T03:46:19.007Z,18.00
2022-08-04T03:49:19.907Z,18.00
2022-08-04T03:52:32.834Z,18.10
2022-08-04T03:55:14.627Z,18.30
2022-08-04T03:58:33.825Z,18.50
2022-08-04T04:01:22.456Z,18.70
2022-08-04T04:03:58.710Z,19.00
2022-08-04T04:06:41.649Z,19.30
2022-08-04T04:09:51.619Z,19.60
2022-08-04T04:12:35.924Z,19.80
2022-08-04T04:15:14.747Z,20.20
2022-08-04T04:18:03.446Z,20.50
2022-08-04T04:20:50.045Z,20.80
2022-08-04T04:23:43.828Z,21.10
2022-08-04T04:26:30.192Z,21.40
2022-08-04T04:29:26.712Z,21.80
2022-08-04T04:32:06.044Z,22.20
2022-08-04T04:34:51.542Z,22.60
2022-08-04T04:37:27.398Z,22.90
2022-08-04T04:40:25.324Z,23.30
2022-08-04T04:43:15.162Z,23.70
2022-08-04T04:45:57.900Z,24.10
2022-08-04T04:48:42.205Z,24.60
2022-08-04T04:51:17.771Z,25.00
2022-08-04T04:54:00.450Z,25.40
2022-08-04T04:56:37.023Z,25.60
2022-08-04T04:59:04.521Z,25.80
2022-08-04T05:01:50.852Z,26.00
2022-08-04T05:04:55.571Z,26.30
2022-08-04T05:07:43.255Z,26.50
2022-08-04T05:10:31.988Z,26.90
2022-08-04T05:14:35.950Z,27.20
2022-08-04T05:16:24.653Z,27.40
2022-08-04T05:19:00.952Z,27.50
2022-08-04T05:21:48.394Z,27.60
2022-08-04T05:24:21.148Z,27.70
2022-08-04T05:26:50.533Z,27.80
2022-08-04T05:29:30.946Z,28.00
2022-08-04T05:31:59.667Z,28.30
2022-08-04T05:34:30.934Z,28.50
2022-08-04T05:37:03.280Z,28.70
2022-08-04T05:39:38.505Z,29.00
2022-08-04T05:42:07.390Z,29.30
2022-08-04T05:44:34.405Z,29.60
2022-08-04T05:47:01.214Z,29.90
2022-08-04T05:49:28.413Z,30.20
2022-08-04T05:51:58.297Z,30.40
2022-08-04T05:54:25.059Z,30.70
2022-08-04T05:56:51.871Z,30.90
2022-08-04T05:59:19.184Z,31.10
2022-08-04T06:01:55.345Z,31.20
2022-08-04T06:04:44.332Z,31.40
2022-08-04T06:07:14.278Z,31.70
2022-08-04T06:09:41.520Z,31.90
2022-08-04T06:12:11.333Z,32.10
2022-08-04T06:14:43.340Z,32.30
2022-08-04T06:18:33.490Z,32.40
2022-08-04T06:20:20.295Z,32.50
2022-08-04T06:22:50.833Z,32.60
2022-08-04T06:25:20.801Z,32.60
2022-08-04T06:27:48.636Z,32.70
2022-08-04T06:30:16.287Z,33.00
2022-08-04T06:32:49.742Z,33.10
2022-08-04T06:35:18.000Z,33.30
2022-08-04T06:37:46.365Z,33.40
2022-08-04T06:40:31.542Z,33.40
2022-08-04T06:43:04.501Z,33.30
2022-08-04T06:45:32.049Z,33.10
2022-08-04T06:47:58.847Z,33.10
2022-08-04T06:51:31.939Z,33.00
2022-08-04T06:53:12.535Z,33.10
2022-08-04T06:55:40.383Z,33.30
2022-08-04T06:58:07.127Z,33.40
2022-08-04T07:00:35.295Z,33.60
2022-08-04T07:03:02.119Z,33.90
2022-08-04T07:05:29.069Z,34.10
2022-08-04T07:07:58.255Z,34.40
2022-08-04T07:10:28.463Z,34.50
2022-08-04T07:12:58.481Z,34.60
2022-08-04T07:15:25.505Z,34.70
2022-08-04T07:17:52.603Z,34.80
2022-08-04T07:20:33.863Z,34.80
2022-08-04T07:23:06.712Z,34.90
2022-08-04T07:25:59.509Z,35.10
2022-08-04T07:28:27.661Z,35.20
2022-08-04T07:30:55.398Z,35.20
2022-08-04T07:33:22.270Z,35.20
2022-08-04T07:36:05.487Z,34.90
2022-08-04T07:38:37.799Z,34.70
2022-08-04T07:44:00.195Z,34.70
2022-08-04T07:46:26.994Z,34.50
2022-08-04T07:48:59.473Z,34.50
2022-08-04T07:51:26.246Z,34.70
2022-08-04T07:53:56.253Z,34.80
2022-08-04T07:56:23.424Z,35.00
2022-08-04T07:58:50.511Z,35.20
2022-08-04T08:01:18.789Z,35.20
2022-08-04T08:03:45.923Z,34.80
2022-08-04T08:06:30.835Z,34.80
2022-08-04T08:09:12.065Z,34.70
2022-08-04T08:12:37.906Z,34.70
2022-08-04T08:14:28.663Z,34.90
2022-08-04T08:16:55.504Z,35.00
2022-08-04T08:19:22.312Z,35.20
2022-08-04T08:21:59.282Z,35.30
2022-08-04T08:24:28.035Z,35.10
2022-08-04T08:26:56.024Z,35.00
2022-08-04T08:29:22.917Z,34.80
2022-08-04T08:31:57.426Z,34.40
2022-08-04T08:34:28.002Z,34.00
2022-08-04T08:37:04.226Z,33.40
2022-08-04T08:39:40.635Z,33.00
2022-08-04T08:42:26.030Z,32.70
2022-08-04T08:45:20.978Z,32.50
2022-08-04T08:48:05.905Z,32.20
2022-08-04T08:50:42.495Z,32.00
2022-08-04T08:53:47.652Z,31.80
2022-08-04T08:56:19.514Z,31.80
2022-08-04T08:59:14.951Z,31.60
2022-08-04T09:02:03.758Z,31.60
2022-08-04T09:04:32.306Z,31.70
2022-08-04T09:07:17.704Z,31.80
2022-08-04T09:10:05.565Z,31.80
2022-08-04T09:12:57.835Z,32.00
2022-08-04T09:15:31.039Z,32.40
2022-08-04T09:18:05.768Z,32.60
2022-08-04T09:20:47.391Z,32.70
2022-08-04T09:23:16.573Z,32.90
2022-08-04T09:25:51.889Z,32.90
2022-08-04T09:28:52.247Z,32.80
2022-08-04T09:31:18.344Z,32.60
2022-08-04T09:33:54.535Z,32.50
2022-08-04T09:36:56.886Z,32.40
2022-08-04T09:39:52.170Z,32.60
2022-08-04T09:42:31.762Z,32.50
2022-08-04T09:45:08.331Z,32.60
2022-08-04T09:47:45.383Z,32.80
2022-08-04T09:50:24.673Z,32.80
2022-08-04T09:53:10.284Z,32.80
2022-08-04T09:55:53.454Z,32.70
2022-08-04T09:58:33.328Z,32.60
2022-08-04T10:01:06.975Z,32.50
2022-08-04T10:03:36.411Z,32.50
2022-08-04T10:06:28.166Z,32.30
2022-08-04T10:08:57.535Z,32.20
2022-08-04T10:11:56.154Z,32.40
2022-08-04T10:14:41.429Z,32.50
2022-08-04T10:17:12.289Z,32.90
2022-08-04T10:19:39.231Z,33.00
2022-08-04T10:22:28.621Z,33.10
2022-08-04T10:25:37.377Z,33.20
2022-08-04T10:28:06.537Z,33.40
2022-08-04T10:30:34.304Z,33.40
2022-08-04T10:33:08.529Z,33.50
2022-08-04T10:35:43.334Z,33.60
2022-08-04T10:38:25.141Z,33.60
2022-08-04T10:41:09.451Z,33.40
2022-08-04T10:43:36.225Z,33.30
2022-08-04T10:46:11.846Z,33.20
2022-08-04T10:48:45.682Z,33.20
2022-08-04T10:51:57.818Z,33.00
2022-08-04T10:54:35.042Z,32.90
2022-08-04T10:57:10.967Z,32.90
2022-08-04T10:59:49.928Z,33.00
2022-08-04T11:03:03.978Z,33.10
2022-08-04T11:05:59.132Z,33.30
2022-08-04T11:08:36.290Z,33.60
2022-08-04T11:11:08.615Z,33.80
2022-08-04T11:13:38.616Z,33.80
2022-08-04T11:16:07.125Z,33.70
2022-08-04T11:19:10.832Z,33.60
2022-08-04T11:21:42.912Z,33.40
2022-08-04T11:24:14.405Z,33.30
2022-08-04T11:26:57.590Z,33.20
2022-08-04T11:29:47.640Z,33.10
2022-08-04T11:32:19.741Z,33.10
2022-08-04T11:34:52.851Z,33.20
2022-08-04T11:37:29.026Z,33.10
2022-08-04T11:40:09.716Z,33.00
2022-08-04T11:42:41.594Z,33.00
2022-08-04T11:45:11.540Z,33.00
2022-08-04T11:48:00.721Z,33.00
2022-08-04T11:50:43.421Z,33.10
2022-08-04T11:53:13.071Z,33.20
2022-08-04T11:56:07.417Z,33.20
2022-08-04T11:58:26.567Z,33.20
2022-08-04T12:01:14.931Z,33.30
2022-08-04T12:04:03.677Z,33.40
2022-08-04T12:06:56.830Z,33.50
2022-08-04T12:09:40.008Z,33.50
2022-08-04T12:12:52.227Z,33.50
2022-08-04T12:15:20.819Z,33.30
2022-08-04T12:17:53.250Z,33.30
2022-08-04T12:20:32.181Z,33.30
2022-08-04T12:23:14.829Z,33.20
2022-08-04T12:25:44.851Z,32.90
2022-08-04T12:29:06.827Z,32.70
2022-08-04T12:31:35.817Z,32.70
2022-08-04T12:34:21.584Z,32.70
2022-08-04T12:36:55.848Z,32.60
2022-08-04T12:39:22.999Z,32.60
2022-08-04T12:42:01.803Z,32.60
2022-08-04T12:44:37.269Z,32.50
2022-08-04T12:47:27.317Z,32.50
2022-08-04T12:50:00.778Z,32.60
2022-08-04T12:55:17.010Z,32.50
2022-08-04T12:57:43.812Z,32.30
2022-08-04T13:00:11.380Z,32.20
2022-08-04T13:02:41.923Z,32.10
2022-08-04T13:05:09.269Z,32.00
2022-08-04T13:07:44.940Z,32.00
2022-08-04T13:10:18.257Z,32.10
2022-08-04T13:12:56.313Z,32.10
2022-08-04T13:15:24.130Z,32.10
2022-08-04T13:17:59.162Z,32.10
2022-08-04T13:20:30.908Z,32.00
2022-08-04T13:23:04.968Z,32.10
2022-08-04T13:26:44.385Z,32.10
2022-08-04T13:28:27.091Z,32.10
2022-08-04T13:30:59.376Z,32.10
2022-08-04T13:33:36.423Z,32.00
2022-08-04T13:36:03.925Z,31.90
2022-08-04T13:38:30.703Z,31.80
2022-08-04T13:40:58.799Z,31.90
2022-08-04T13:44:16.348Z,31.90
2022-08-04T13:46:28.812Z,32.00
2022-08-04T13:51:58.487Z,32.10
2022-08-04T13:54:27.044Z,32.10
2022-08-04T13:56:59.989Z,32.10
2022-08-04T13:59:27.680Z,32.20
2022-08-04T14:02:04.061Z,32.20
2022-08-04T14:04:32.185Z,32.20
2022-08-04T14:07:03.766Z,32.20
2022-08-04T14:09:35.456Z,32.20
2022-08-04T14:12:39.075Z,32.20
2022-08-04T14:15:07.975Z,32.20
2022-08-04T14:17:34.966Z,32.10
2022-08-04T14:20:03.873Z,32.10
2022-08-04T14:22:33.650Z,32.10
2022-08-04T14:25:01.595Z,32.10
2022-08-04T14:27:55.159Z,32.00
2022-08-04T14:30:30.830Z,32.00
2022-08-04T14:34:00.503Z,32.00
2022-08-04T14:35:57.121Z,32.00
2022-08-04T14:38:23.990Z,32.10
2022-08-04T14:40:50.704Z,32.10
2022-08-04T14:43:17.775Z,32.10
2022-08-04T14:45:54.809Z,32.10
2022-08-04T14:48:22.095Z,32.10
2022-08-04T14:50:49.492Z,32.00
2022-08-04T14:53:26.406Z,32.00
2022-08-04T14:55:56.352Z,32.00
2022-08-04T14:58:36.008Z,32.00
2022-08-04T15:01:10.403Z,31.90
2022-08-04T15:03:50.654Z,31.80
2022-08-04T15:06:23.314Z,31.80
2022-08-04T15:08:51.293Z,31.80
2022-08-04T15:11:23.417Z,31.70
2022-08-04T15:13:53.874Z,31.70
2022-08-04T15:16:21.873Z,31.70
2022-08-04T15:18:49.541Z,31.70
2022-08-04T15:21:16.807Z,31.60
2022-08-04T15:23:43.531Z,31.60
2022-08-04T15:26:13.374Z,31.50
2022-08-04T15:28:41.133Z,31.60
2022-08-04T15:32:01.699Z,31.60
2022-08-04T15:33:55.768Z,31.60
2022-08-04T15:36:57.271Z,31.60
2022-08-04T15:39:42.890Z,31.50
2022-08-04T15:42:24.125Z,31.50
2022-08-04T15:45:13.418Z,31.50
2022-08-04T15:47:40.460Z,31.40
2022-08-04T15:50:09.891Z,31.40
2022-08-04T15:53:13.310Z,31.30
2022-08-04T15:55:42.117Z,31.30
2022-08-04T15:58:14.193Z,31.30
2022-08-04T16:01:04.349Z,31.30
2022-08-04T16:03:55.437Z,31.30
2022-08-04T16:06:20.703Z,31.30
2022-08-04T16:08:56.490Z,31.20
2022-08-04T16:11:31.063Z,31.20
2022-08-04T16:14:01.716Z,31.20
2022-08-04T16:16:33.107Z,31.20
2022-08-04T16:19:10.439Z,31.20
2022-08-04T16:21:56.819Z,31.20
2022-08-04T16:24:35.918Z,31.20
2022-08-04T16:27:06.480Z,31.10
2022-08-04T16:29:34.480Z,31.10
2022-08-04T16:32:09.087Z,31.10
2022-08-04T16:34:53.815Z,31.10
2022-08-04T16:37:23.321Z,31.10
2022-08-04T16:39:51.961Z,31.00
2022-08-04T16:42:27.973Z,31.00
2022-08-04T16:45:13.640Z,31.00
2022-08-04T16:47:49.928Z,30.90
2022-08-04T16:50:21.174Z,30.90
2022-08-04T16:52:57.048Z,30.90
2022-08-04T16:55:27.934Z,30.90
2022-08-04T16:57:56.401Z,30.80
2022-08-04T17:00:37.008Z,30.80
2022-08-04T17:03:05.242Z,30.80
2022-08-04T17:05:39.497Z,30.80
2022-08-04T17:08:29.150Z,30.70
2022-08-04T17:10:54.999Z,30.60
2022-08-04T17:14:02.848Z,30.60
2022-08-04T17:16:18.162Z,30.60
2022-08-04T17:18:52.777Z,30.60
2022-08-04T17:21:24.843Z,30.50
2022-08-04T17:24:15.111Z,30.50
2022-08-04T17:26:41.530Z,30.50
2022-08-04T17:31:55.609Z,30.40
2022-08-04T17:34:26.368Z,30.40
2022-08-04T17:37:17.765Z,30.40
2022-08-04T17:39:43.420Z,30.30
2022-08-04T17:42:27.200Z,30.30
2022-08-04T17:45:32.002Z,30.30
2022-08-04T17:47:56.085Z,30.20
2022-08-04T17:50:33.344Z,30.20
2022-08-04T17:53:11.669Z,30.10
2022-08-04T17:55:49.596Z,30.10
2022-08-04T17:58:22.249Z,30.00
2022-08-04T18:01:25.244Z,30.00
2022-08-04T18:03:59.868Z,29.90
2022-08-04T18:06:26.655Z,29.80
2022-08-04T18:08:59.043Z,29.80
2022-08-04T18:11:41.431Z,29.70
2022-08-04T18:14:09.584Z,29.60
2022-08-04T18:16:44.586Z,29.50
2022-08-04T18:19:12.405Z,29.50
2022-08-04T18:21:46.639Z,29.40
2022-08-04T18:24:34.583Z,29.30
2022-08-04T18:27:03.491Z,29.30
2022-08-04T18:29:34.251Z,29.20
2022-08-04T18:32:07.071Z,29.10
2022-08-04T18:34:36.539Z,29.10
2022-08-04T18:38:05.588Z,29.00
2022-08-04T18:40:26.486Z,29.00
2022-08-04T18:42:56.352Z,28.90
2022-08-04T18:45:24.184Z,28.90
2022-08-04T18:48:02.086Z,28.80
2022-08-04T18:51:01.239Z,28.70
2022-08-04T18:53:19.921Z,28.70
2022-08-04T18:55:57.227Z,28.70
2022-08-04T18:58:27.431Z,28.60
2022-08-04T19:00:55.897Z,28.50
2022-08-04T19:03:23.527Z,28.40
2022-08-04T19:05:51.707Z,28.40
2022-08-04T19:08:33.097Z,28.30
2022-08-04T19:11:02.223Z,28.20
2022-08-04T19:13:54.759Z,28.10
2022-08-04T19:16:24.677Z,28.00
2022-08-04T19:18:51.447Z,27.80
2022-08-04T19:21:18.917Z,27.70
2022-08-04T19:24:27.415Z,27.50
2022-08-04T19:26:52.987Z,27.30
2022-08-04T19:29:20.597Z,27.10
2022-08-04T19:31:48.266Z,26.90
2022-08-04T19:34:18.047Z,26.70
2022-08-04T19:37:01.747Z,26.60
2022-08-04T19:39:31.428Z,26.40
2022-08-04T19:42:04.638Z,26.30
2022-08-04T19:44:33.559Z,26.20
2022-08-04T19:47:02.203Z,26.10
2022-08-04T19:50:02.936Z,26.00
2022-08-04T19:52:33.223Z,25.90
2022-08-04T19:55:10.133Z,25.80
2022-08-04T19:57:46.175Z,25.70
2022-08-04T20:00:14.363Z,25.60
2022-08-04T20:02:44.255Z,25.50
2022-08-04T20:05:11.552Z,25.50
2022-08-04T20:07:38.433Z,25.40
2022-08-04T20:10:06.209Z,25.40
2022-08-04T20:12:33.701Z,25.30
2022-08-04T20:15:00.742Z,25.20
2022-08-04T20:18:07.068Z,25.20
2022-08-04T20:20:18.639Z,25.10
2022-08-04T20:22:51.890Z,25.10
2022-08-04T20:25:35.852Z,25.00
2022-08-04T20:28:04.869Z,25.00
2022-08-04T20:30:33.158Z,25.00
2022-08-04T20:33:01.334Z,24.90
2022-08-04T20:35:32.552Z,24.90
2022-08-04T20:38:33.534Z,24.90
2022-08-04T20:41:01.454Z,24.80
2022-08-04T20:43:28.390Z,24.80
2022-08-04T20:45:59.345Z,24.80
2022-08-04T20:48:33.556Z,24.80
2022-08-04T20:51:00.785Z,24.70
2022-08-04T20:53:46.819Z,24.70
2022-08-04T20:56:18.993Z,24.70
2022-08-04T20:58:57.145Z,24.70
2022-08-04T21:01:29.509Z,24.60
2022-08-04T21:04:27.764Z,24.60
2022-08-04T21:06:57.405Z,24.60
2022-08-04T21:09:36.970Z,24.50
2022-08-04T21:12:07.076Z,24.50
2022-08-04T21:14:34.455Z,24.40
2022-08-04T21:17:03.003Z,24.40
2022-08-04T21:19:31.740Z,24.30
2022-08-04T21:22:01.105Z,24.30
2022-08-04T21:24:28.120Z,24.20
2022-08-04T21:26:59.545Z,24.20
2022-08-04T21:29:34.925Z,24.10
2022-08-04T21:32:06.001Z,24.10
2022-08-04T21:34:39.140Z,24.10
2022-08-04T21:37:09.417Z,24.10
2022-08-04T21:39:50.104Z,24.00
2022-08-04T21:42:29.166Z,24.00
2022-08-04T21:45:05.241Z,24.00
2022-08-04T21:47:46.021Z,24.00
2022-08-04T21:50:19.565Z,23.90
2022-08-04T21:52:47.695Z,23.90
2022-08-04T21:55:14.520Z,23.80
2022-08-04T21:57:42.646Z,23.80
2022-08-04T22:00:10.701Z,23.80
2022-08-04T22:02:37.866Z,23.80
2022-08-04T22:05:07.437Z,23.80
2022-08-04T22:07:47.637Z,23.70
2022-08-04T22:10:18.531Z,23.70
2022-08-04T22:12:59.431Z,23.60
2022-08-04T22:16:05.079Z,23.60
2022-08-04T22:18:20.206Z,23.50
2022-08-04T22:20:51.768Z,23.40
2022-08-04T22:23:19.246Z,23.40
2022-08-04T22:25:55.722Z,23.40
2022-08-04T22:28:24.540Z,23.40
2022-08-04T22:30:55.296Z,23.40
2022-08-04T22:33:22.784Z,23.40
2022-08-04T22:35:50.175Z,23.40
2022-08-04T22:38:26.907Z,23.40
2022-08-04T22:41:04.519Z,23.30
2022-08-04T22:43:34.343Z,23.30
2022-08-04T22:46:19.278Z,23.30
2022-08-04T22:48:46.141Z,23.20
2022-08-04T22:51:14.128Z,23.20
2022-08-04T22:53:41.783Z,23.20
2022-08-04T22:56:15.990Z,23.20
2022-08-04T22:59:02.755Z,23.20
2022-08-04T23:01:45.299Z,23.20
2022-08-04T23:04:16.365Z,23.20
2022-08-04T23:06:43.317Z,23.20
2022-08-04T23:09:16.222Z,23.20
2022-08-04T23:11:43.779Z,23.10
2022-08-04T23:14:10.798Z,23.20
2022-08-04T23:16:40.332Z,23.10
2022-08-04T23:19:15.171Z,23.10
2022-08-04T23:21:47.641Z,23.10
2022-08-04T23:24:29.990Z,23.10
2022-08-04T23:26:57.783Z,23.00
2022-08-04T23:29:24.800Z,23.00
2022-08-04T23:31:59.107Z,23.00
2022-08-04T23:34:27.612Z,23.10
2022-08-04T23:36:56.379Z,23.00
2022-08-04T23:39:26.054Z,22.90
2022-08-04T23:42:15.080Z,22.90
2022-08-04T23:44:48.305Z,22.80
2022-08-04T23:48:14.733Z,22.80
2022-08-04T23:50:01.916Z,22.80
2022-08-04T23:52:30.218Z,22.70
2022-08-04T23:54:59.045Z,22.70
2022-08-04T23:57:31.613Z,22.70
